Time;durP1;ratioP1;P1;durP2;ratioP2;P2;SDS_P1;SDS_P2;PMS_P1;PMS_P2;Temp;Humidity;BMP_temperature;BMP_pressure;BME280_temperature;BME280_humidity;BME280_pressure;Samples;Min_cycle;Max_cycle;Signal;HPM_P1;HPM_P2
2022/09/06 05:08:02;;;;;;;28.48;17.70;;;;;;;;;;5138865;23;20054;-57
2022/09/06 05:10:28;;;;;;;24.02;14.80;;;;;;;;;;4934529;29;20039;-57
2022/09/06 05:12:54;;;;;;;24.02;15.43;;;;;;;;;;4934653;29;20027;-57
2022/09/06 05:15:21;;;;;;;29.60;16.95;;;;;;;;;;4934527;29;20110;-59
2022/09/06 05:17:47;;;;;;;25.35;16.20;;;;;;;;;;4934355;29;20035;-57
2022/09/06 05:20:13;;;;;;;28.55;16.15;;;;;;;;;;4933736;29;20031;-59
2022/09/06 05:22:40;;;;;;;25.60;16.13;;;;;;;;;;4934299;29;20031;-59
2022/09/06 05:25:06;;;;;;;38.03;25.40;;;;;;;;;;4917655;29;20028;-57
2022/09/06 05:27:32;;;;;;;29.15;17.33;;;;;;;;;;4934202;29;20036;-60
2022/09/06 05:29:58;;;;;;;23.63;16.42;;;;;;;;;;4933912;29;20031;-59
2022/09/06 05:32:24;;;;;;;21.30;15.68;;;;;;;;;;4934147;29;20027;-57
2022/09/06 05:34:50;;;;;;;29.92;16.00;;;;;;;;;;4933917;29;20127;-57
2022/09/06 05:37:16;;;;;;;25.65;16.60;;;;;;;;;;4934205;29;20380;-57
2022/09/06 05:39:42;;;;;;;27.35;16.15;;;;;;;;;;4933873;29;20107;-60
2022/09/06 05:42:08;;;;;;;26.77;17.05;;;;;;;;;;4934009;29;20027;-57
2022/09/06 05:44:35;;;;;;;26.10;17.17;;;;;;;;;;4933825;29;20031;-57
2022/09/06 05:47:01;;;;;;;22.08;16.13;;;;;;;;;;4933832;29;20062;-59
2022/09/06 05:49:31;;;;;;;74.57;43.40;;;;;;;;;;4933478;29;20035;-60
2022/09/06 05:51:57;;;;;;;94.70;53.10;;;;;;;;;;4933194;29;20032;-57
2022/09/06 05:54:24;;;;;;;45.00;26.88;;;;;;;;;;4933663;29;20027;-56
2022/09/06 05:56:50;;;;;;;63.20;28.17;;;;;;;;;;4933655;29;20472;-60
2022/09/06 05:59:16;;;;;;;37.70;22.92;;;;;;;;;;4933496;29;20396;-58
2022/09/06 06:01:49;;;;;;;32.90;21.08;;;;;;;;;;4933542;29;20383;-57
2022/09/06 06:04:17;;;;;;;26.23;16.77;;;;;;;;;;4933430;29;20035;-61
2022/09/06 06:06:43;;;;;;;26.38;16.65;;;;;;;;;;4933660;29;20075;-57
2022/09/06 06:09:09;;;;;;;22.75;15.02;;;;;;;;;;4916784;29;20059;-57
2022/09/06 06:11:35;;;;;;;24.08;15.75;;;;;;;;;;4914786;29;20028;-59
2022/09/06 06:14:02;;;;;;;20.27;14.60;;;;;;;;;;4915012;29;20028;-59
2022/09/06 06:16:28;;;;;;;23.88;15.00;;;;;;;;;;4914407;29;20024;-58
2022/09/06 06:18:54;;;;;;;22.33;14.80;;;;;;;;;;4914443;29;20044;-57
2022/09/06 06:21:21;;;;;;;20.90;14.57;;;;;;;;;;4914463;29;20508;-57
2022/09/06 06:23:51;;;;;;;20.50;15.48;;;;;;;;;;4914678;29;20040;-58
2022/09/06 06:26:18;;;;;;;19.73;14.25;;;;;;;;;;4914774;29;20068;-56
2022/09/06 06:28:44;;;;;;;17.90;11.63;;;;;;;;;;4914403;29;20032;-57
2022/09/06 06:31:10;;;;;;;19.63;13.57;;;;;;;;;;4914813;29;20039;-60
2022/09/06 06:33:37;;;;;;;23.00;14.73;;;;;;;;;;4918438;29;20507;-57
2022/09/06 06:36:23;;;;;;;24.02;15.65;;;;;;;;;;4918101;29;20032;-58
2022/09/06 06:38:50;;;;;;;24.27;15.68;;;;;;;;;;4918371;29;20060;-57
2022/09/06 06:41:17;;;;;;;27.88;17.77;;;;;;;;;;4918004;29;20058;-57
2022/09/06 06:43:43;;;;;;;23.08;15.35;;;;;;;;;;4918032;29;20060;-61
2022/09/06 06:46:11;;;;;;;22.98;14.73;;;;;;;;;;4917423;29;20024;-57
2022/09/06 06:48:39;;;;;;;22.63;14.63;;;;;;;;;;4917542;29;20040;-59
2022/09/06 06:51:05;;;;;;;20.15;14.48;;;;;;;;;;4916952;29;20036;-59
2022/09/06 06:53:31;;;;;;;21.70;14.20;;;;;;;;;;4917557;29;20042;-58
2022/09/06 06:55:58;;;;;;;20.75;13.85;;;;;;;;;;4917929;29;20042;-56
2022/09/06 06:58:24;;;;;;;21.65;14.02;;;;;;;;;;4917514;29;20560;-61
2022/09/06 07:00:50;;;;;;;17.95;13.20;;;;;;;;;;4917624;29;20515;-61
2022/09/06 07:03:17;;;;;;;16.73;11.48;;;;;;;;;;4917657;29;20040;-60
2022/09/06 07:05:44;;;;;;;15.95;11.55;;;;;;;;;;4917253;29;20032;-60
2022/09/06 07:08:10;;;;;;;14.73;10.65;;;;;;;;;;4896714;29;20199;-57
2022/09/06 07:10:36;;;;;;;13.88;10.80;;;;;;;;;;4898925;29;20052;-59
2022/09/06 07:13:03;;;;;;;13.30;10.15;;;;;;;;;;4898730;29;20036;-60
2022/09/06 07:15:29;;;;;;;14.60;10.55;;;;;;;;;;4897297;29;20051;-61
2022/09/06 07:17:55;;;;;;;14.02;10.35;;;;;;;;;;4897545;29;20076;-60
2022/09/06 07:20:22;;;;;;;13.63;10.40;;;;;;;;;;4898001;29;20608;-57
2022/09/06 07:22:58;;;;;;;12.32;9.82;;;;;;;;;;4897862;29;20033;-57
2022/09/06 07:25:24;;;;;;;13.07;9.52;;;;;;;;;;4897981;29;20067;-60
2022/09/06 07:27:56;;;;;;;16.17;10.07;;;;;;;;;;4897609;29;20031;-57
2022/09/06 07:30:22;;;;;;;14.23;10.05;;;;;;;;;;4897506;29;20040;-60
2022/09/06 07:32:48;;;;;;;13.13;9.45;;;;;;;;;;4897874;29;20033;-56
2022/09/06 07:35:14;;;;;;;13.52;9.88;;;;;;;;;;4897885;29;20108;-59
2022/09/06 07:37:40;;;;;;;16.77;9.90;;;;;;;;;;4897684;29;20489;-61
2022/09/06 07:40:07;;;;;;;84.65;15.93;;;;;;;;;;4897771;29;20048;-61
2022/09/06 07:42:33;;;;;;;20.38;10.02;;;;;;;;;;4897933;29;20056;-61
2022/09/06 07:44:59;;;;;;;90.65;14.57;;;;;;;;;;4897446;29;20032;-59
2022/09/06 07:47:25;;;;;;;16.75;9.30;;;;;;;;;;4897874;29;20025;-57
2022/09/06 07:49:51;;;;;;;60.15;11.80;;;;;;;;;;4897487;29;20102;-61
2022/09/06 07:52:17;;;;;;;15.40;9.10;;;;;;;;;;4897597;29;20091;-60
2022/09/06 07:54:43;;;;;;;13.60;9.45;;;;;;;;;;4897927;29;20388;-58
2022/09/06 07:57:10;;;;;;;12.60;9.68;;;;;;;;;;4897111;29;20547;-60
2022/09/06 07:59:36;;;;;;;16.80;10.80;;;;;;;;;;4897629;29;20029;-60
2022/09/06 08:02:02;;;;;;;13.68;9.70;;;;;;;;;;4897590;29;20028;-61
2022/09/06 08:04:28;;;;;;;18.50;10.50;;;;;;;;;;4896364;29;20032;-60
2022/09/06 08:06:56;;;;;;;15.27;10.60;;;;;;;;;;4896758;29;20115;-61
2022/09/06 08:09:22;;;;;;;19.10;10.40;;;;;;;;;;4914671;29;20548;-65
2022/09/06 08:11:49;;;;;;;14.52;10.63;;;;;;;;;;4916089;29;20036;-64
2022/09/06 08:14:15;;;;;;;16.70;10.85;;;;;;;;;;4915379;29;20060;-66
2022/09/06 08:16:41;;;;;;;16.30;11.60;;;;;;;;;;4914890;29;20028;-64
2022/09/06 08:19:08;;;;;;;12.18;10.02;;;;;;;;;;4915787;29;20056;-65
2022/09/06 08:21:34;;;;;;;14.55;10.43;;;;;;;;;;4915762;29;20024;-64
2022/09/06 08:24:01;;;;;;;14.40;10.85;;;;;;;;;;4916038;29;20028;-64
2022/09/06 08:26:28;;;;;;;13.63;9.15;;;;;;;;;;4915552;29;20047;-65
2022/09/06 08:28:56;;;;;;;12.60;9.52;;;;;;;;;;4902342;29;20448;-65
2022/09/06 08:31:22;;;;;;;12.25;9.38;;;;;;;;;;4914403;29;20376;-65
2022/09/06 08:33:48;;;;;;;17.98;9.68;;;;;;;;;;4913114;29;20428;-64
2022/09/06 08:36:15;;;;;;;13.02;9.25;;;;;;;;;;4914432;29;20061;-60
2022/09/06 08:38:41;;;;;;;13.05;9.88;;;;;;;;;;4915704;29;20476;-66
2022/09/06 08:41:09;;;;;;;14.15;10.05;;;;;;;;;;4915733;29;20087;-62
2022/09/06 08:43:35;;;;;;;13.70;10.05;;;;;;;;;;4915199;29;20028;-66
2022/09/06 08:46:03;;;;;;;12.90;9.15;;;;;;;;;;4915911;29;20354;-64
2022/09/06 08:48:32;;;;;;;13.40;9.48;;;;;;;;;;4914898;29;20040;-66
2022/09/06 08:51:30;;;;;;;14.45;9.15;;;;;;;;;;4915383;29;20044;-65
2022/09/06 08:53:59;;;;;;;11.30;8.40;;;;;;;;;;4855009;29;20580;-65
2022/09/06 08:56:33;;;;;;;10.75;7.93;;;;;;;;;;4840879;29;20533;-66
2022/09/06 08:59:06;;;;;;;11.80;7.72;;;;;;;;;;4856895;29;20049;-67
2022/09/06 09:01:45;;;;;;;9.10;7.10;;;;;;;;;;4857177;29;20078;-65
2022/09/06 09:04:13;;;;;;;10.93;8.02;;;;;;;;;;4856754;29;20041;-64
2022/09/06 09:06:39;;;;;;;14.95;8.60;;;;;;;;;;4856236;29;20048;-66
2022/09/06 09:09:07;;;;;;;10.85;8.85;;;;;;;;;;4855815;29;20045;-66
2022/09/06 09:11:34;;;;;;;10.18;7.82;;;;;;;;;;4856920;29;20038;-68
2022/09/06 09:14:03;;;;;;;9.43;7.10;;;;;;;;;;4856920;29;20125;-68
2022/09/06 09:16:30;;;;;;;9.98;7.32;;;;;;;;;;4851963;29;20561;-64
2022/09/06 09:18:57;;;;;;;9.73;6.53;;;;;;;;;;4856371;29;20537;-67
2022/09/06 09:21:24;;;;;;;7.40;6.05;;;;;;;;;;4854051;29;20038;-62
2022/09/06 09:24:11;;;;;;;9.30;6.72;;;;;;;;;;4842767;29;20102;-64
2022/09/06 09:26:46;;;;;;;8.88;6.25;;;;;;;;;;4855122;29;20033;-68
2022/09/06 09:29:13;;;;;;;6.82;5.53;;;;;;;;;;4878431;29;20047;-68
2022/09/06 09:31:39;;;;;;;8.90;6.13;;;;;;;;;;4933841;29;20396;-67
2022/09/06 09:34:09;;;;;;;7.35;6.28;;;;;;;;;;4915771;29;20069;-66
2022/09/06 09:36:36;;;;;;;6.70;5.63;;;;;;;;;;4914222;29;20099;-64
2022/09/06 09:39:08;;;;;;;7.30;5.35;;;;;;;;;;4929248;29;20055;-68
2022/09/06 09:41:35;;;;;;;7.35;6.13;;;;;;;;;;4919197;29;20080;-68
2022/09/06 09:44:02;;;;;;;11.88;6.15;;;;;;;;;;4914820;29;20051;-65
2022/09/06 09:46:38;;;;;;;11.00;7.95;;;;;;;;;;4917475;29;20091;-67
2022/09/06 09:49:09;;;;;;;9.52;6.68;;;;;;;;;;4897916;29;20135;-62
2022/09/06 09:51:40;;;;;;;11.90;8.43;;;;;;;;;;4920102;29;20134;-67
2022/09/06 09:54:08;;;;;;;8.65;6.38;;;;;;;;;;4922950;29;20035;-65
2022/09/06 09:56:34;;;;;;;11.02;6.78;;;;;;;;;;4914607;29;20032;-64
2022/09/06 09:59:00;;;;;;;9.10;7.10;;;;;;;;;;4928360;29;20032;-64
2022/09/06 10:01:30;;;;;;;9.50;7.25;;;;;;;;;;4930708;29;20111;-64
2022/09/06 10:04:00;;;;;;;10.55;6.65;;;;;;;;;;4910938;29;20471;-65
2022/09/06 10:06:26;;;;;;;7.57;6.55;;;;;;;;;;4914432;29;20107;-63
2022/09/06 10:08:53;;;;;;;11.98;7.28;;;;;;;;;;4927556;29;20515;-64
2022/09/06 10:11:36;;;;;;;8.43;6.88;;;;;;;;;;4918565;29;20055;-63
2022/09/06 10:14:10;;;;;;;11.73;7.85;;;;;;;;;;4927569;29;20032;-62
2022/09/06 10:16:43;;;;;;;10.02;7.82;;;;;;;;;;4929495;29;20395;-62
2022/09/06 10:19:21;;;;;;;10.68;7.68;;;;;;;;;;4936898;29;20047;-65
2022/09/06 10:21:48;;;;;;;10.27;7.70;;;;;;;;;;4937587;29;20028;-64
2022/09/06 10:24:23;;;;;;;10.90;6.97;;;;;;;;;;4937172;29;20031;-65
2022/09/06 10:26:54;;;;;;;11.70;9.40;;;;;;;;;;4936977;29;20526;-64
2022/09/06 10:29:40;;;;;;;6.90;6.18;;;;;;;;;;4937048;29;20511;-64
2022/09/06 10:32:22;;;;;;;8.85;7.32;;;;;;;;;;4937081;29;20032;-63
2022/09/06 10:34:57;;;;;;;9.40;7.47;;;;;;;;;;4937221;29;20103;-66
2022/09/06 10:37:23;;;;;;;9.32;7.40;;;;;;;;;;4937052;29;20044;-65
2022/09/06 10:39:54;;;;;;;9.13;6.93;;;;;;;;;;4936381;29;20128;-65
2022/09/06 10:42:20;;;;;;;26.33;8.70;;;;;;;;;;4937108;29;20032;-64
2022/09/06 10:45:02;;;;;;;11.95;7.30;;;;;;;;;;4937180;29;20038;-64
2022/09/06 10:47:32;;;;;;;9.80;7.60;;;;;;;;;;4936672;29;20034;-66
2022/09/06 10:49:58;;;;;;;8.43;6.53;;;;;;;;;;4936454;29;20043;-65
2022/09/06 10:52:28;;;;;;;45.60;11.55;;;;;;;;;;4936716;29;20115;-63
2022/09/06 10:55:00;;;;;;;42.95;12.10;;;;;;;;;;4936799;29;20024;-64
2022/09/06 10:57:32;;;;;;;21.27;9.15;;;;;;;;;;4936704;29;20120;-64
2022/09/06 11:00:12;;;;;;;13.75;7.10;;;;;;;;;;4936741;29;20039;-64
2022/09/06 11:02:43;;;;;;;12.38;7.60;;;;;;;;;;4936668;29;20166;-65
2022/09/06 11:05:17;;;;;;;7.38;6.35;;;;;;;;;;4935950;29;20424;-63
2022/09/06 11:07:46;;;;;;;8.43;6.38;;;;;;;;;;4935952;29;20048;-64
2022/09/06 11:10:21;;;;;;;8.15;6.50;;;;;;;;;;4936566;29;20031;-64
2022/09/06 11:12:56;;;;;;;11.93;7.15;;;;;;;;;;4936346;29;20100;-65
2022/09/06 11:15:24;;;;;;;23.80;9.63;;;;;;;;;;4936468;29;20492;-65
2022/09/06 11:17:59;;;;;;;8.20;6.30;;;;;;;;;;4935712;29;20448;-65
2022/09/06 11:20:37;;;;;;;23.42;8.55;;;;;;;;;;4935723;29;20028;-63
2022/09/06 11:23:22;;;;;;;31.83;8.82;;;;;;;;;;4936393;29;20023;-64
2022/09/06 11:25:54;;;;;;;19.30;8.98;;;;;;;;;;4936093;29;20487;-65
2022/09/06 11:28:43;;;;;;;9.48;6.57;;;;;;;;;;4936094;29;20035;-62
2022/09/06 11:31:25;;;;;;;14.98;7.45;;;;;;;;;;4936122;29;20028;-62
2022/09/06 11:34:06;;;;;;;7.95;6.78;;;;;;;;;;4936123;29;20432;-62
2022/09/06 11:36:52;;;;;;;8.10;5.90;;;;;;;;;;4935333;29;20043;-62
2022/09/06 11:39:35;;;;;;;9.07;6.35;;;;;;;;;;4935574;29;20414;-62
2022/09/06 11:42:01;;;;;;;7.28;5.93;;;;;;;;;;4936137;29;20048;-63
2022/09/06 11:44:46;;;;;;;16.02;12.45;;;;;;;;;;4936070;29;20031;-62
2022/09/06 11:47:32;;;;;;;15.02;8.85;;;;;;;;;;4935479;29;20035;-62
2022/09/06 11:49:58;;;;;;;7.25;6.05;;;;;;;;;;4935392;29;20074;-63
2022/09/06 11:52:42;;;;;;;6.50;5.80;;;;;;;;;;4935762;29;20027;-62
2022/09/06 11:55:10;;;;;;;8.07;6.47;;;;;;;;;;4935608;29;20488;-63
2022/09/06 11:57:36;;;;;;;9.85;6.50;;;;;;;;;;4935346;29;20027;-63
2022/09/06 12:00:05;;;;;;;8.57;7.03;;;;;;;;;;4935330;29;20043;-63
2022/09/06 12:02:39;;;;;;;7.68;5.80;;;;;;;;;;4935265;29;20513;-62
2022/09/06 12:05:08;;;;;;;11.40;7.97;;;;;;;;;;4935210;29;20059;-64
2022/09/06 12:07:35;;;;;;;8.80;5.90;;;;;;;;;;4934828;29;20044;-62
2022/09/06 12:10:21;;;;;;;8.70;7.35;;;;;;;;;;4935318;29;20067;-62
2022/09/06 12:12:51;;;;;;;10.65;7.43;;;;;;;;;;4935374;29;20027;-62
2022/09/06 12:15:28;;;;;;;11.57;8.02;;;;;;;;;;4935310;29;20032;-63
2022/09/06 12:17:55;;;;;;;9.32;7.00;;;;;;;;;;4934716;29;20028;-63
2022/09/06 12:20:41;;;;;;;11.70;8.00;;;;;;;;;;4934952;29;20032;-63
2022/09/06 12:23:07;;;;;;;14.25;8.18;;;;;;;;;;4918498;29;20479;-61
2022/09/06 12:25:33;;;;;;;11.50;7.55;;;;;;;;;;4935201;29;20435;-62
2022/09/06 12:28:06;;;;;;;9.38;6.35;;;;;;;;;;4934925;29;20027;-64
2022/09/06 12:30:32;;;;;;;10.93;7.07;;;;;;;;;;4934370;29;20079;-62
2022/09/06 12:32:58;;;;;;;10.82;6.68;;;;;;;;;;4934949;29;20090;-62
2022/09/06 12:35:26;;;;;;;8.80;7.05;;;;;;;;;;4934732;29;20035;-61
2022/09/06 12:37:59;;;;;;;11.48;7.45;;;;;;;;;;4934970;29;20576;-61
2022/09/06 12:40:28;;;;;;;8.40;6.82;;;;;;;;;;4934818;29;20555;-61
2022/09/06 12:42:54;;;;;;;14.23;7.88;;;;;;;;;;4934796;29;20024;-61
2022/09/06 12:45:21;;;;;;;11.63;6.80;;;;;;;;;;4934822;29;20420;-60
2022/09/06 12:47:47;;;;;;;9.32;7.03;;;;;;;;;;4934861;29;20110;-62
2022/09/06 12:50:22;;;;;;;11.05;7.35;;;;;;;;;;4934607;29;20112;-61
2022/09/06 12:52:48;;;;;;;8.32;5.47;;;;;;;;;;4934885;29;20028;-61
2022/09/06 12:55:16;;;;;;;5.45;4.82;;;;;;;;;;4934778;29;20027;-61
2022/09/06 12:57:50;;;;;;;7.35;5.93;;;;;;;;;;4934256;29;20118;-62
2022/09/06 13:00:18;;;;;;;9.13;6.82;;;;;;;;;;4934507;29;20054;-64
2022/09/06 13:02:56;;;;;;;7.07;6.25;;;;;;;;;;4934166;29;20028;-66
2022/09/06 13:05:22;;;;;;;8.55;6.43;;;;;;;;;;4934194;29;20027;-62
2022/09/06 13:07:50;;;;;;;9.65;6.10;;;;;;;;;;4913348;29;20474;-62
2022/09/06 13:10:18;;;;;;;8.95;7.78;;;;;;;;;;4914960;29;20028;-63
2022/09/06 13:12:47;;;;;;;8.07;6.85;;;;;;;;;;4915028;29;20544;-63
2022/09/06 13:15:16;;;;;;;8.07;5.75;;;;;;;;;;4915103;29;20067;-64
2022/09/06 13:17:43;;;;;;;13.32;8.25;;;;;;;;;;4914972;29;20032;-64
2022/09/06 13:20:12;;;;;;;7.80;6.38;;;;;;;;;;4915179;29;20055;-63
2022/09/06 13:22:38;;;;;;;9.55;7.22;;;;;;;;;;4914926;29;20032;-64
2022/09/06 13:25:05;;;;;;;7.95;6.22;;;;;;;;;;4914984;29;20039;-64
2022/09/06 13:27:31;;;;;;;12.05;6.88;;;;;;;;;;4915381;29;20028;-61
2022/09/06 13:29:59;;;;;;;9.48;6.78;;;;;;;;;;4914826;29;20554;-63
2022/09/06 13:32:29;;;;;;;7.40;6.40;;;;;;;;;;4915089;29;20028;-66
2022/09/06 13:34:57;;;;;;;7.97;6.63;;;;;;;;;;4915071;29;20028;-63
2022/09/06 13:37:27;;;;;;;8.13;6.40;;;;;;;;;;4914871;29;20032;-63
2022/09/06 13:39:54;;;;;;;10.13;6.63;;;;;;;;;;4914845;29;20063;-62
2022/09/06 13:42:34;;;;;;;6.95;5.95;;;;;;;;;;4914322;29;20430;-62
2022/09/06 13:45:35;;;;;;;10.15;7.00;;;;;;;;;;4914604;29;20030;-62
2022/09/06 13:48:01;;;;;;;8.55;5.93;;;;;;;;;;4856306;29;20044;-62
2022/09/06 13:50:28;;;;;;;9.25;6.50;;;;;;;;;;4856003;29;20566;-60
2022/09/06 13:52:54;;;;;;;8.35;6.50;;;;;;;;;;4856165;29;20025;-61
2022/09/06 13:55:21;;;;;;;7.82;6.15;;;;;;;;;;4856400;29;20036;-62
2022/09/06 13:57:47;;;;;;;11.10;6.45;;;;;;;;;;4856905;29;20041;-61
2022/09/06 14:00:14;;;;;;;8.88;5.85;;;;;;;;;;4856592;29;20060;-62
2022/09/06 14:02:41;;;;;;;6.75;6.05;;;;;;;;;;4837690;29;20034;-61
2022/09/06 14:05:07;;;;;;;6.13;4.65;;;;;;;;;;4837186;29;20038;-62
2022/09/06 14:07:33;;;;;;;8.88;5.55;;;;;;;;;;4836735;29;20033;-62
2022/09/06 14:10:02;;;;;;;8.60;5.30;;;;;;;;;;4837160;29;20487;-61
2022/09/06 14:12:28;;;;;;;10.23;5.60;;;;;;;;;;4836964;29;20095;-61
2022/09/06 14:14:54;;;;;;;6.15;5.38;;;;;;;;;;4837593;29;20044;-62
2022/09/06 14:17:20;;;;;;;5.60;5.00;;;;;;;;;;4837868;29;20502;-62
2022/09/06 14:19:49;;;;;;;6.95;5.55;;;;;;;;;;4838035;29;20042;-62
2022/09/06 14:22:15;;;;;;;7.80;6.38;;;;;;;;;;4871588;29;20047;-61
2022/09/06 14:24:41;;;;;;;8.55;6.10;;;;;;;;;;4895491;29;20028;-62
2022/09/06 14:27:07;;;;;;;9.35;6.47;;;;;;;;;;4895662;29;20437;-62
2022/09/06 14:29:34;;;;;;;6.45;5.40;;;;;;;;;;4895536;29;20103;-62
2022/09/06 14:32:00;;;;;;;9.35;5.32;;;;;;;;;;4893773;29;20496;-61
2022/09/06 14:34:26;;;;;;;7.18;5.15;;;;;;;;;;4895466;29;20056;-61
2022/09/06 14:36:53;;;;;;;7.70;6.50;;;;;;;;;;4894998;29;20043;-61
2022/09/06 14:39:19;;;;;;;10.70;6.40;;;;;;;;;;4895604;29;20059;-62
2022/09/06 14:41:45;;;;;;;8.05;6.05;;;;;;;;;;4895598;29;20558;-62
2022/09/06 14:44:11;;;;;;;8.82;6.35;;;;;;;;;;4895709;29;20040;-61
2022/09/06 14:46:37;;;;;;;13.18;7.03;;;;;;;;;;4895591;29;20021;-62
2022/09/06 14:49:07;;;;;;;14.35;9.48;;;;;;;;;;4895445;29;20028;-63
2022/09/06 14:51:33;;;;;;;14.63;8.70;;;;;;;;;;4895285;29;20024;-61
2022/09/06 14:54:01;;;;;;;14.23;9.40;;;;;;;;;;4896681;29;20080;-61
2022/09/06 14:56:29;;;;;;;13.70;9.13;;;;;;;;;;4898464;29;20021;-61
2022/09/06 14:58:56;;;;;;;12.02;9.18;;;;;;;;;;4898389;29;20493;-61
2022/09/06 15:01:23;;;;;;;9.88;8.20;;;;;;;;;;4898614;29;20051;-61
2022/09/06 15:03:51;;;;;;;15.43;8.73;;;;;;;;;;4898602;29;20024;-61
2022/09/06 15:06:18;;;;;;;16.27;7.78;;;;;;;;;;4898150;29;20482;-62
2022/09/06 15:08:44;;;;;;;12.82;8.50;;;;;;;;;;4908845;29;20056;-62
2022/09/06 15:11:11;;;;;;;11.63;7.97;;;;;;;;;;4917192;29;20429;-61
2022/09/06 15:13:39;;;;;;;11.00;7.50;;;;;;;;;;4917159;29;20028;-62
2022/09/06 15:16:06;;;;;;;11.98;7.18;;;;;;;;;;4917288;29;20476;-61
2022/09/06 15:18:32;;;;;;;12.80;7.75;;;;;;;;;;4917202;29;20076;-62
2022/09/06 15:20:58;;;;;;;10.02;7.55;;;;;;;;;;4916891;29;20036;-61
2022/09/06 15:23:26;;;;;;;10.00;8.05;;;;;;;;;;4917113;29;20031;-61
2022/09/06 15:25:52;;;;;;;12.50;7.70;;;;;;;;;;4917067;29;20087;-62
2022/09/06 15:28:19;;;;;;;12.63;6.45;;;;;;;;;;4917350;29;20032;-62
2022/09/06 15:30:46;;;;;;;7.72;6.50;;;;;;;;;;4917203;29;20032;-63
2022/09/06 15:33:13;;;;;;;11.73;7.30;;;;;;;;;;4917192;29;20029;-63
2022/09/06 15:35:40;;;;;;;8.35;5.90;;;;;;;;;;4916118;29;20488;-62
2022/09/06 15:38:06;;;;;;;8.82;6.35;;;;;;;;;;4916372;29;20047;-62
2022/09/06 15:40:32;;;;;;;8.10;5.97;;;;;;;;;;4916109;29;20032;-63
2022/09/06 15:42:59;;;;;;;7.78;6.20;;;;;;;;;;4915966;29;20105;-62
2022/09/06 15:45:25;;;;;;;13.38;7.10;;;;;;;;;;4916412;29;20028;-63
2022/09/06 15:47:51;;;;;;;10.07;5.88;;;;;;;;;;4916563;29;20028;-63
2022/09/06 15:50:17;;;;;;;8.38;6.30;;;;;;;;;;4916765;29;20028;-62
2022/09/06 15:52:43;;;;;;;9.63;6.72;;;;;;;;;;4916457;29;20024;-62
2022/09/06 15:57:54;;;;;;;9.65;6.85;;;;;;;;;;4916733;29;20035;-63
2022/09/06 16:00:22;;;;;;;9.65;6.85;;;;;;;;;;4916508;29;20115;-61
2022/09/06 16:02:48;;;;;;;11.63;6.50;;;;;;;;;;4916531;29;20032;-62
2022/09/06 16:05:14;;;;;;;7.72;6.63;;;;;;;;;;4915990;29;20020;-65
2022/09/06 16:07:43;;;;;;;9.32;7.10;;;;;;;;;;4915953;29;20114;-64
2022/09/06 16:10:10;;;;;;;10.20;7.90;;;;;;;;;;4914522;29;20032;-63
2022/09/06 16:12:37;;;;;;;11.60;7.90;;;;;;;;;;4916022;29;20028;-62
2022/09/06 16:15:03;;;;;;;8.90;7.57;;;;;;;;;;4916541;29;20051;-63
2022/09/06 16:17:30;;;;;;;8.98;7.63;;;;;;;;;;4915784;29;20869;-62
2022/09/06 16:19:56;;;;;;;8.95;7.57;;;;;;;;;;4916057;29;20044;-63
2022/09/06 16:22:22;;;;;;;7.85;7.05;;;;;;;;;;4915669;29;20069;-62
2022/09/06 16:24:48;;;;;;;10.35;7.40;;;;;;;;;;4915880;29;20040;-61
2022/09/06 16:27:14;;;;;;;11.95;7.40;;;;;;;;;;4916078;29;20084;-61
2022/09/06 16:29:41;;;;;;;11.15;8.30;;;;;;;;;;4915745;29;20527;-62
2022/09/06 16:32:08;;;;;;;13.52;7.88;;;;;;;;;;4915457;29;20055;-61
2022/09/06 16:34:36;;;;;;;11.20;8.07;;;;;;;;;;4916284;29;20107;-64
2022/09/06 16:37:06;;;;;;;14.35;10.45;;;;;;;;;;4915379;29;20505;-61
2022/09/06 16:39:33;;;;;;;10.68;8.35;;;;;;;;;;4915612;29;20068;-62
2022/09/06 16:42:00;;;;;;;11.90;8.15;;;;;;;;;;4915263;29;20039;-63
2022/09/06 16:44:26;;;;;;;12.13;8.75;;;;;;;;;;4915914;29;20040;-64
2022/09/06 16:46:54;;;;;;;10.20;8.20;;;;;;;;;;4915220;29;20032;-61
2022/09/06 16:49:21;;;;;;;12.10;8.75;;;;;;;;;;4915342;29;20123;-62
2022/09/06 16:51:47;;;;;;;12.18;8.82;;;;;;;;;;4915268;29;20032;-62
2022/09/06 16:54:14;;;;;;;13.40;9.73;;;;;;;;;;4915472;29;20035;-62
2022/09/06 16:56:40;;;;;;;14.25;9.20;;;;;;;;;;4915163;29;20115;-62
2022/09/06 16:59:07;;;;;;;14.00;9.10;;;;;;;;;;4915122;29;20036;-61
2022/09/06 17:01:34;;;;;;;14.30;8.57;;;;;;;;;;4913926;29;20020;-63
2022/09/06 17:04:01;;;;;;;12.95;9.13;;;;;;;;;;4913986;29;20036;-62
2022/09/06 17:06:28;;;;;;;11.48;9.38;;;;;;;;;;4913590;29;20023;-62
2022/09/06 17:08:57;;;;;;;15.57;9.55;;;;;;;;;;4913554;29;20056;-63
2022/09/06 17:14:35;;;;;;;15.27;10.10;;;;;;;;;;4982795;23;20047;-61
2022/09/06 17:17:04;;;;;;;13.15;9.70;;;;;;;;;;4933512;29;20040;-64
2022/09/06 17:19:35;;;;;;;17.50;9.85;;;;;;;;;;4916636;29;20138;-62
2022/09/06 17:22:01;;;;;;;14.90;9.65;;;;;;;;;;4933917;29;20030;-61
2022/09/06 17:24:28;;;;;;;12.90;9.73;;;;;;;;;;4934279;29;20036;-62
2022/09/06 17:26:54;;;;;;;12.68;9.75;;;;;;;;;;4933776;29;20079;-62
2022/09/06 17:29:21;;;;;;;12.50;8.95;;;;;;;;;;4934089;29;20032;-61
2022/09/06 17:31:48;;;;;;;12.90;9.18;;;;;;;;;;4933674;29;20090;-61
2022/09/06 17:34:14;;;;;;;13.85;9.88;;;;;;;;;;4933766;29;20500;-65
2022/09/06 17:36:40;;;;;;;15.70;9.57;;;;;;;;;;4933091;29;20131;-66
2022/09/06 17:39:08;;;;;;;17.77;12.73;;;;;;;;;;4933185;29;20102;-66
2022/09/06 17:41:35;;;;;;;17.88;13.20;;;;;;;;;;4933356;29;20020;-63
2022/09/06 17:44:01;;;;;;;17.95;11.32;;;;;;;;;;4933333;29;20043;-62
2022/09/06 17:46:27;;;;;;;17.40;12.10;;;;;;;;;;4933594;29;20059;-64
2022/09/06 17:48:53;;;;;;;14.40;10.73;;;;;;;;;;4933453;29;20024;-64
2022/09/06 17:51:19;;;;;;;15.50;9.82;;;;;;;;;;4933202;29;20435;-64
2022/09/06 17:53:45;;;;;;;14.35;9.52;;;;;;;;;;4933636;29;20032;-64
2022/09/06 17:56:13;;;;;;;18.02;10.25;;;;;;;;;;4933560;29;20028;-67
2022/09/06 17:58:39;;;;;;;15.63;10.10;;;;;;;;;;4933501;29;20035;-63
2022/09/06 18:01:06;;;;;;;14.35;10.65;;;;;;;;;;4933624;29;20042;-64
2022/09/06 18:03:33;;;;;;;14.75;10.35;;;;;;;;;;4933754;29;20452;-63
2022/09/06 18:06:06;;;;;;;14.63;9.68;;;;;;;;;;4933356;29;20028;-62
2022/09/06 18:08:33;;;;;;;16.88;11.98;;;;;;;;;;4933922;29;20511;-68
2022/09/06 18:10:59;;;;;;;16.88;9.73;;;;;;;;;;4931839;29;20387;-65
2022/09/06 18:13:25;;;;;;;17.95;9.73;;;;;;;;;;4927634;29;20100;-65
2022/09/06 18:15:51;;;;;;;15.23;9.88;;;;;;;;;;4922794;29;20115;-63
2022/09/06 18:18:18;;;;;;;15.38;9.35;;;;;;;;;;4923736;29;20028;-63
2022/09/06 18:20:44;;;;;;;13.80;10.40;;;;;;;;;;4922854;29;20085;-63
2022/09/06 18:23:10;;;;;;;16.35;9.68;;;;;;;;;;4922322;29;20028;-63
2022/09/06 18:25:36;;;;;;;15.20;10.38;;;;;;;;;;4922110;29;20111;-64
2022/09/06 18:28:02;;;;;;;15.43;10.05;;;;;;;;;;4933290;29;20499;-66
2022/09/06 18:30:28;;;;;;;15.05;10.55;;;;;;;;;;4936118;29;20046;-66
2022/09/06 18:32:54;;;;;;;19.17;11.88;;;;;;;;;;4935865;29;20055;-66
2022/09/06 18:35:20;;;;;;;17.17;10.35;;;;;;;;;;4922211;29;20111;-64
2022/09/06 18:37:46;;;;;;;17.77;10.85;;;;;;;;;;4916942;29;20059;-64
2022/09/06 18:40:12;;;;;;;18.60;10.52;;;;;;;;;;4916904;29;20036;-67
2022/09/06 18:42:43;;;;;;;15.52;10.02;;;;;;;;;;4916425;29;20036;-63
2022/09/06 18:45:09;;;;;;;18.23;10.43;;;;;;;;;;4916780;29;20789;-67
2022/09/06 18:47:35;;;;;;;17.33;10.05;;;;;;;;;;4916932;29;20050;-63
2022/09/06 18:50:03;;;;;;;14.13;10.02;;;;;;;;;;4917264;29;20123;-62
2022/09/06 18:52:31;;;;;;;14.35;9.30;;;;;;;;;;4917483;29;20403;-66
2022/09/06 18:54:57;;;;;;;11.80;8.52;;;;;;;;;;4918746;29;20388;-62
2022/09/06 18:57:23;;;;;;;12.38;9.50;;;;;;;;;;4916802;29;20024;-65
2022/09/06 18:59:49;;;;;;;12.00;9.32;;;;;;;;;;4930475;29;20052;-64
2022/09/06 19:02:15;;;;;;;12.65;9.00;;;;;;;;;;4935922;29;20034;-64
2022/09/06 19:04:41;;;;;;;15.50;9.63;;;;;;;;;;4936263;29;20070;-63
2022/09/06 19:07:07;;;;;;;14.15;8.65;;;;;;;;;;4936410;29;20107;-67
2022/09/06 19:09:33;;;;;;;15.18;9.70;;;;;;;;;;4936783;29;20031;-67
2022/09/06 19:11:59;;;;;;;11.82;8.43;;;;;;;;;;4936309;29;20166;-66
2022/09/06 19:14:25;;;;;;;14.20;9.20;;;;;;;;;;4935849;29;20134;-66
2022/09/06 19:16:52;;;;;;;12.75;8.57;;;;;;;;;;4936307;29;20107;-62
2022/09/06 19:19:20;;;;;;;17.33;9.27;;;;;;;;;;4936204;29;20063;-63
2022/09/06 19:21:46;;;;;;;15.68;8.43;;;;;;;;;;4936112;29;20020;-65
2022/09/06 19:24:14;;;;;;;13.88;8.43;;;;;;;;;;4924904;29;20047;-64
2022/09/06 19:26:41;;;;;;;14.55;9.77;;;;;;;;;;4917250;29;20491;-62
2022/09/06 19:29:10;;;;;;;12.02;7.97;;;;;;;;;;4916990;29;20460;-62
2022/09/06 19:31:37;;;;;;;15.52;8.73;;;;;;;;;;4916684;29;20024;-65
2022/09/06 19:34:03;;;;;;;9.93;7.25;;;;;;;;;;4899172;29;20396;-68
2022/09/06 19:36:30;;;;;;;15.15;7.70;;;;;;;;;;4915832;29;20032;-65
2022/09/06 19:38:57;;;;;;;13.77;7.80;;;;;;;;;;4915593;29;20051;-63
2022/09/06 19:41:24;;;;;;;12.60;7.00;;;;;;;;;;4915849;29;20039;-63
2022/09/06 19:43:51;;;;;;;10.23;7.10;;;;;;;;;;4914936;29;20055;-66
2022/09/06 19:46:17;;;;;;;8.82;6.50;;;;;;;;;;4921487;29;20027;-62
2022/09/06 19:48:45;;;;;;;10.18;7.05;;;;;;;;;;4906499;29;20091;-68
2022/09/06 19:51:11;;;;;;;12.55;7.63;;;;;;;;;;4898627;29;20369;-66